Aviation Digital Data Service (ADDS)

Output produced by METARs form (0859 UTC 10 December 2022)
found at http://www.aviationweather.gov/metar/data/
 
KBOS 100536Z 1006/1112 01011KT P6SM FEW035 
     FM101000 01012KT P6SM BKN035 
     FM101300 02012KT P6SM BKN025 
     FM110600 36009KT P6SM VCSH BKN025
       
KLGA 100830Z 1008/1112 02010KT P6SM SKC 
     FM101300 03012KT P6SM FEW035 
     FM101800 05010KT P6SM SCT035 
     FM110000 06009KT P6SM FEW015 BKN035 
     FM110900 07009KT P6SM BKN020 BKN050
       
KEWR 100830Z 1008/1112 01009KT P6SM SKC 
     FM101500 03009KT P6SM SKC 
     FM102100 05008KT P6SM SCT035 
     FM110000 04007KT P6SM FEW015 BKN035 
     FM110900 04007KT P6SM BKN020 BKN050
       
KJFK 100830Z 1008/1112 01011KT P6SM SKC 
     FM101300 03012KT P6SM FEW035 
     FM101900 05010KT P6SM SCT035 
     FM110000 06007KT P6SM FEW015 BKN035 
     FM110900 07007KT P6SM BKN020 BKN050
       
KPHL 100528Z 1006/1112 02005KT P6SM SKC 
     FM101200 05010KT P6SM SCT250 
     FM102200 06005KT P6SM BKN035 
     FM110800 05005KT P6SM BKN025
       
KIAD 100540Z 1006/1112 34004KT P6SM SKC 
     FM100900 03004KT P6SM BKN050 
     FM101500 07005KT P6SM OVC050 
     FM110300 10003KT P6SM OVC040 
     FM110700 10004KT P6SM OVC025
       
KBWI 100540Z 1006/1112 35003KT P6SM SKC 
     FM101500 05006KT P6SM OVC070 
     FM102100 08004KT P6SM OVC070 
     FM110700 07004KT P6SM OVC030 
     FM111100 08004KT P6SM OVC015
       
KDCA 100540Z 1006/1112 04005KT P6SM SKC 
     FM101000 03006KT P6SM BKN050 
     FM101500 06007KT P6SM OVC050 
     FM110400 10006KT P6SM OVC050 
     FM110700 09005KT P6SM OVC030
       
KCLT 100540Z 1006/1112 08003KT 5SM -DZ BR SCT006 BKN013 OVC025 
     TEMPO 1006/1009 P6SM NSW BKN006 OVC013 
     FM100900 09004KT P6SM OVC013 
     FM101500 08005KT P6SM OVC022 
     FM102100 06005KT P6SM BKN035 OVC060 
     FM110800 VRB02KT 6SM BR VCSH SCT025 BKN035 
     PROB30 1108/1112 4SM -RA BR OVC025
       
KATL 100737Z 1008/1112 09007KT 4SM BR OVC004 
     FM101200 08005KT 5SM BR OVC004 
     FM101600 09005KT P6SM OVC006 
     FM102100 09005KT P6SM OVC012 
     FM110200 10005KT 6SM BR OVC009 
     PROB30 1102/1106 2SM -RA BR OVC003 
     FM110900 10006KT 3SM -SHRA BR OVC004
       
KMCO 100540Z 1006/1112 28004KT P6SM FEW040 
     FM100900 VRB03KT 2SM BR FEW004 SCT015 
     TEMPO 1009/1013 1/2SM FG BKN003 
     FM101400 33003KT P6SM FEW008 SCT030 
     FM101800 34007KT P6SM FEW040 
     FM110000 02006KT P6SM FEW040 SCT250
       
KTPA 100857Z 1009/1112 VRB03KT 6SM BR BKN005 
     TEMPO 1010/1013 3SM BR BKN003 
     FM101400 VRB03KT 6SM BR SCT005 
     FM101600 02003KT P6SM FEW035 
     FM102000 29008KT P6SM FEW250 
     FM110800 03002KT P6SM VCFG SCT004
       
KFLL 100854Z 1009/1112 VRB04KT P6SM FEW040 
     FM101500 03007KT P6SM SCT040 
     FM101800 06010KT P6SM FEW030 SCT050 
     FM110200 VRB04KT P6SM FEW035
       
KMIA 100854Z 1009/1112 VRB04KT P6SM FEW040 
     FM101500 03007KT P6SM SCT040 
     FM101800 06008KT P6SM FEW030 SCT050 
     FM110100 VRB04KT P6SM FEW035
       
KDTW 100538Z 1006/1112 04012KT P6SM OVC015 
     FM101200 07009KT P6SM BKN020 
     FM101800 08011KT P6SM OVC035 
     FM102200 08004KT P6SM OVC012
       
KMSP 100848Z 1009/1112 12010KT 4SM -SN BR OVC012 
     FM101200 14008KT 2SM -FZDZSN BR OVC006 
     FM101500 15005KT 2SM -DZ BR OVC003 
     FM102000 18004KT P6SM OVC007 
     FM110500 VRB03KT P6SM OVC011
       
KORD 100522Z 1006/1112 09009KT 5SM -DZ BR OVC008 
     FM101000 09007KT 3SM BR OVC004 
     FM101700 12007KT P6SM OVC007 
     FM102100 17005KT P6SM OVC012 
     FM110200 23005KT P6SM BKN020 
     FM110600 30005KT P6SM BKN025
       
KMDW 100522Z 1006/1112 09009KT 5SM -DZ BR OVC008 
     FM101000 09007KT 3SM BR OVC004 
     FM101700 12007KT P6SM OVC007 
     FM102100 17005KT P6SM OVC012 
     FM110200 23005KT P6SM BKN020 
     FM110600 30005KT P6SM BKN025
       
KMEM 100856Z 1009/1112 VRB03KT 3SM BR OVC004 
     TEMPO 1009/1011 1/2SM FG VV001 
     FM101500 08005KT 6SM BR VCSH OVC010 
     FM101700 07006KT 3SM -RA BR OVC007 
     FM110100 04004KT 2SM -DZ BR OVC003
       
KDFW 100859Z 1009/1112 16005KT 3SM BR SCT003 OVC013 
     TEMPO 1009/1012 1SM BR OVC003 
     FM101600 17007KT P6SM VCSH OVC010 
     FM101900 24007KT 5SM -SHRA BR VCTS OVC010CB 
     FM102100 36010KT 6SM -SHRA BR VCTS OVC012CB 
     FM110300 01008KT P6SM VCTS OVC015CB 
     FM110700 01006KT 5SM BR OVC012
       
KIAH 100520Z 1006/1112 17005KT 6SM BR SCT007 BKN020 
     FM100700 15005KT 4SM BR OVC006 
     FM101000 14004KT 2SM BR OVC005 
     FM101500 15007KT P6SM SCT010 SCT030 
     FM101800 16009KT P6SM VCSH BKN035 
     FM110100 14006KT P6SM VCTS BKN025CB
       
KDEN 100858Z 1009/1112 VRB05KT P6SM SKC 
     FM101000 15007KT P6SM SKC 
     FM101400 19006KT P6SM FEW200 
     FM101800 VRB05KT P6SM SCT200 
     FM102100 06007KT P6SM BKN200 
     FM110200 20011KT P6SM BKN200
       
KSLC 100825Z 1008/1112 15005KT P6SM SCT100 BKN150 
     TEMPO 1008/1011 15013G26KT 
     FM101700 16010G20KT P6SM SCT100 OVC120 
     FM101900 17015G25KT P6SM SCT100 OVC120 
     FM110100 17010KT P6SM OVC100
       
KSEA 100534Z 1006/1112 14010G20KT 6SM -RA BR OVC030 WS020/14040KT 
     FM101000 12012G18KT 6SM -RA BR OVC018 
     FM101600 12010KT P6SM -SHRA BKN025 OVC035 
     FM110000 09008KT P6SM VCSH BKN027 OVC040 
     FM110600 VRB04KT P6SM BKN045
       
KSFO 100549Z 1006/1112 17005KT P6SM BKN025 OVC035 
     FM100900 17017KT P6SM BKN030 OVC040 
     FM101000 17015G25KT P6SM VCSH OVC040 WS020/22040KT 
     FM101200 17025G35KT 4SM -RA BR OVC020 WS020/22050KT 
     FM101500 17035G47KT 2SM +RA BR BKN009 OVC015 WS020/19065KT 
     FM101900 24025G30KT 6SM -RA BR BKN025 BKN050 
     FM110200 23015KT 5SM -SHRA BR OVC030 
     FM110600 23012KT 5SM -SHRA OVC030
       
KLAX 100554Z 1006/1112 VRB03KT P6SM BKN015 BKN200 
     FM101100 VRB03KT P6SM OVC025 
     FM102000 23009KT P6SM VCSH OVC025 
     FM110300 16009KT 6SM -SHRA BR OVC015 
     FM110600 16015KT 4SM -RA BR SCT008 OVC015 
     FM110900 16022G32KT 2SM RA BR OVC008
       
KSAN 100845Z 1009/1112 VRB04KT P6SM FEW025 
     TEMPO 1012/1015 BKN025 
     FM102100 28009KT P6SM FEW250 
     FM110200 28004KT P6SM SCT025 
     FM110500 20006KT P6SM BKN030
       
KLAS 100532Z 1006/1112 22005KT P6SM SCT250 
     FM101500 VRB04KT P6SM BKN250 
     FM102000 10006KT P6SM SCT250 
     FM110200 16010KT P6SM SCT150 SCT250
       
KPHX 100830Z 1009/1112 11004KT P6SM SKC 
     FM102300 28004KT P6SM SKC 
     FM110400 09005KT P6SM FEW250
       
KSDF 100635Z 1007/1112 00000KT 1/2SM FG BKN002 
     FM101400 24004KT 2SM BR BKN004 
     FM101800 25006KT P6SM OVC012 
     FM102200 25005KT P6SM OVC025
       
KIND 100838Z 1009/1112 07004KT 4SM BR OVC006 
     FM101000 08003KT 3SM BR BCFG OVC004 
     FM101300 10003KT 5SM BR BKN008 OVC011 
     FM101700 14003KT P6SM BKN012 OVC022
       
KCVG 100857Z 1009/1112 36003KT 2SM BR OVC012 
     FM101000 VRB03KT 1SM BR OVC003 
     FM101400 VRB03KT 2SM BR OVC004 
     FM101500 VRB03KT P6SM BKN007 OVC012 
     FM101800 21003KT P6SM BKN025 
     FM110100 24003KT P6SM OVC015 
     FM110400 26003KT P6SM VCSH OVC012 
     FM110600 30004KT P6SM OVC008